createdAt,value
2022-08-01T00:01:28.382Z,35.80
2022-08-01T00:04:00.338Z,36.20
2022-08-01T00:09:24.602Z,36.60
2022-08-01T00:12:00.553Z,36.80
2022-08-01T00:14:35.922Z,36.90
2022-08-01T00:17:09.273Z,37.10
2022-08-01T00:19:43.143Z,37.00
2022-08-01T00:22:28.621Z,36.80
2022-08-01T00:25:01.082Z,36.70
2022-08-01T00:27:33.340Z,36.80
2022-08-01T00:30:15.597Z,36.90
2022-08-01T00:32:48.040Z,36.90
2022-08-01T00:35:19.922Z,37.10
2022-08-01T00:40:45.351Z,36.70
2022-08-01T00:54:00.343Z,36.50
2022-08-01T00:56:36.066Z,36.50
2022-08-01T00:59:10.573Z,36.40
2022-08-01T01:01:46.422Z,36.30
2022-08-01T01:04:20.129Z,36.20
2022-08-01T01:07:01.939Z,36.10
2022-08-01T01:09:40.749Z,35.90
2022-08-01T01:12:29.184Z,36.10
2022-08-01T01:15:19.293Z,36.30
2022-08-01T01:17:59.733Z,36.70
2022-08-01T01:20:49.148Z,37.10
2022-08-01T01:23:53.275Z,37.80
2022-08-01T01:26:44.760Z,38.00
2022-08-01T01:32:12.356Z,38.10
2022-08-01T01:34:47.426Z,37.90
2022-08-01T01:37:22.853Z,38.10
2022-08-01T01:40:06.012Z,38.20
2022-08-01T01:48:40.906Z,38.10
2022-08-01T01:54:16.405Z,37.90
2022-08-01T01:56:52.930Z,37.60
2022-08-01T01:59:29.029Z,37.20
2022-08-01T02:02:08.732Z,36.80
2022-08-01T02:04:42.675Z,36.00
2022-08-01T02:07:16.577Z,35.50
2022-08-01T02:09:50.612Z,35.20
2022-08-01T02:12:24.709Z,34.70
2022-08-01T02:14:58.249Z,34.10
2022-08-01T02:17:35.953Z,33.60
2022-08-01T02:20:07.575Z,33.20
2022-08-01T02:22:42.463Z,33.00
2022-08-01T02:25:20.016Z,32.80
2022-08-01T02:28:05.638Z,32.70
2022-08-01T02:30:40.735Z,32.50
2022-08-01T02:33:19.601Z,32.40
2022-08-01T02:36:29.097Z,32.20
2022-08-01T02:38:49.710Z,32.00
2022-08-01T02:41:26.125Z,31.80
2022-08-01T02:44:01.389Z,31.60
2022-08-01T02:46:38.327Z,31.50
2022-08-01T02:49:13.127Z,31.30
2022-08-01T02:51:46.563Z,31.20
2022-08-01T02:54:21.476Z,31.00
2022-08-01T02:56:54.723Z,30.90
2022-08-01T02:59:28.254Z,30.70
2022-08-01T03:02:03.491Z,30.50
2022-08-01T03:04:39.946Z,30.40
2022-08-01T03:07:13.559Z,30.30
2022-08-01T03:09:48.321Z,30.10
2022-08-01T03:12:23.655Z,30.10
2022-08-01T03:14:56.432Z,30.00
2022-08-01T03:17:31.058Z,29.90
2022-08-01T03:20:08.815Z,29.80
2022-08-01T03:22:41.425Z,29.70
2022-08-01T03:25:14.818Z,29.60
2022-08-01T03:27:47.529Z,29.60
2022-08-01T03:30:19.753Z,29.50
2022-08-01T03:33:06.529Z,29.40
2022-08-01T03:41:01.743Z,29.10
2022-08-01T03:46:25.983Z,28.90
2022-08-01T03:49:14.000Z,28.80
2022-08-01T03:52:01.153Z,28.60
2022-08-01T04:01:08.030Z,27.70
2022-08-01T04:06:49.630Z,27.30
2022-08-01T04:09:31.247Z,27.20
2022-08-01T04:12:11.936Z,27.20
2022-08-01T04:15:05.819Z,27.10
2022-08-01T04:17:40.304Z,27.00
2022-08-01T04:20:13.154Z,26.90
2022-08-01T04:22:46.141Z,26.80
2022-08-01T04:25:23.913Z,26.70
2022-08-01T04:27:59.022Z,26.60
2022-08-01T04:30:35.465Z,26.50
2022-08-01T04:33:18.949Z,26.40
2022-08-01T04:36:04.854Z,26.40
2022-08-01T04:46:34.892Z,26.10
2022-08-01T04:49:11.340Z,26.10
2022-08-01T04:51:59.898Z,26.00
2022-08-01T04:57:17.747Z,25.80
2022-08-01T04:59:51.566Z,25.80
2022-08-01T05:02:23.602Z,25.70
2022-08-01T05:04:57.125Z,25.60
2022-08-01T05:07:28.943Z,25.50
2022-08-01T05:09:59.765Z,25.50
2022-08-01T05:12:31.472Z,25.50
2022-08-01T05:15:04.213Z,25.40
2022-08-01T05:17:36.100Z,25.30
2022-08-01T05:20:10.494Z,25.30
2022-08-01T05:22:41.727Z,25.30
2022-08-01T05:25:19.244Z,25.20
2022-08-01T05:27:52.337Z,25.10
2022-08-01T05:30:26.745Z,25.00
2022-08-01T05:32:59.400Z,24.90
2022-08-01T05:35:48.856Z,24.90
2022-08-01T05:38:21.497Z,24.80
2022-08-01T05:40:53.282Z,24.70
2022-08-01T05:43:28.733Z,24.70
2022-08-01T05:46:00.464Z,24.60
2022-08-01T05:48:32.812Z,24.60
2022-08-01T05:51:05.964Z,24.50
2022-08-01T05:53:37.817Z,24.40
2022-08-01T05:56:09.387Z,24.40
2022-08-01T05:58:40.885Z,24.30
2022-08-01T06:01:11.713Z,24.30
2022-08-01T06:03:43.442Z,24.30
2022-08-01T06:06:25.182Z,24.20
2022-08-01T06:08:57.234Z,24.10
2022-08-01T06:11:36.206Z,24.10
2022-08-01T06:14:08.807Z,24.10
2022-08-01T06:16:47.775Z,24.10
2022-08-01T06:19:20.264Z,24.10
2022-08-01T06:21:55.120Z,24.10
2022-08-01T06:24:26.989Z,24.10
2022-08-01T06:26:58.699Z,24.10
2022-08-01T06:29:30.494Z,24.10
2022-08-01T06:32:03.398Z,24.00
2022-08-01T06:34:35.508Z,24.00
2022-08-01T06:37:08.967Z,24.00
2022-08-01T06:39:40.540Z,23.90
2022-08-01T06:42:13.602Z,23.90
2022-08-01T06:44:45.076Z,23.80
2022-08-01T06:47:16.955Z,23.70
2022-08-01T06:49:49.040Z,23.80
2022-08-01T06:52:24.180Z,23.70
2022-08-01T06:54:55.935Z,23.70
2022-08-01T06:57:27.024Z,23.70
2022-08-01T06:59:59.497Z,23.60
2022-08-01T07:02:30.577Z,23.60
2022-08-01T07:05:03.921Z,23.50
2022-08-01T07:07:40.939Z,23.40
2022-08-01T07:10:13.958Z,23.30
2022-08-01T07:12:46.021Z,23.30
2022-08-01T07:15:17.658Z,23.20
2022-08-01T07:17:48.793Z,23.20
2022-08-01T07:20:24.024Z,23.20
2022-08-01T07:22:57.538Z,23.10
2022-08-01T07:25:31.596Z,23.10
2022-08-01T07:28:05.623Z,23.00
2022-08-01T07:30:36.933Z,23.00
2022-08-01T07:33:09.930Z,22.90
2022-08-01T07:35:45.115Z,22.90
2022-08-01T07:38:19.051Z,22.80
2022-08-01T07:40:51.560Z,22.70
2022-08-01T07:43:22.679Z,22.60
2022-08-01T07:45:54.539Z,22.60
2022-08-01T07:48:26.472Z,22.50
2022-08-01T07:50:58.932Z,22.40
2022-08-01T07:53:31.881Z,22.40
2022-08-01T07:56:04.673Z,22.30
2022-08-01T07:58:38.521Z,22.30
2022-08-01T08:01:11.739Z,22.20
2022-08-01T08:03:43.941Z,22.10
2022-08-01T08:06:15.219Z,22.10
2022-08-01T08:08:48.229Z,22.00
2022-08-01T08:11:19.809Z,21.90
2022-08-01T08:13:50.729Z,21.90
2022-08-01T08:16:22.875Z,21.80
2022-08-01T08:18:54.353Z,21.80
2022-08-01T08:21:27.251Z,21.70
2022-08-01T08:24:17.137Z,21.70
2022-08-01T08:26:49.474Z,21.60
2022-08-01T08:29:23.787Z,21.60
2022-08-01T08:32:04.057Z,21.50
2022-08-01T08:34:38.020Z,21.50
2022-08-01T08:37:09.855Z,21.40
2022-08-01T08:39:44.802Z,21.40
2022-08-01T08:42:18.193Z,21.40
2022-08-01T08:44:49.592Z,21.30
2022-08-01T08:47:23.460Z,21.30
2022-08-01T08:49:58.552Z,21.10
2022-08-01T08:52:31.475Z,21.20
2022-08-01T08:55:06.399Z,21.10
2022-08-01T08:57:38.449Z,21.10
2022-08-01T09:00:11.966Z,21.00
2022-08-01T09:02:48.333Z,21.00
2022-08-01T09:05:38.895Z,21.00
2022-08-01T09:08:12.203Z,21.00
2022-08-01T09:10:45.908Z,21.00
2022-08-01T09:13:18.813Z,21.00
2022-08-01T09:15:52.250Z,20.90
2022-08-01T09:18:34.204Z,20.90
2022-08-01T09:21:17.596Z,20.90
2022-08-01T09:23:53.913Z,20.80
2022-08-01T09:26:34.746Z,20.80
2022-08-01T09:29:08.391Z,20.70
2022-08-01T09:31:47.945Z,20.70
2022-08-01T09:34:20.304Z,20.60
2022-08-01T09:36:57.868Z,20.60
2022-08-01T09:39:30.928Z,20.60
2022-08-01T09:42:06.098Z,20.60
2022-08-01T09:44:54.329Z,20.50
2022-08-01T09:47:26.966Z,20.50
2022-08-01T09:50:02.996Z,20.50
2022-08-01T09:52:39.041Z,20.50
2022-08-01T09:55:14.598Z,20.50
2022-08-01T09:58:00.425Z,20.50
2022-08-01T10:00:44.895Z,20.50
2022-08-01T10:03:27.394Z,20.50
2022-08-01T10:06:00.107Z,20.50
2022-08-01T10:08:32.054Z,20.50
2022-08-01T10:11:19.706Z,20.50
2022-08-01T10:13:54.323Z,20.60
2022-08-01T10:16:27.898Z,20.50
2022-08-01T10:19:01.924Z,20.50
2022-08-01T10:21:57.383Z,20.60
2022-08-01T10:24:35.207Z,20.60
2022-08-01T10:27:12.579Z,20.70
2022-08-01T10:30:05.335Z,20.70
2022-08-01T10:32:40.465Z,20.70
2022-08-01T10:35:18.098Z,20.70
2022-08-01T10:38:10.560Z,20.70
2022-08-01T10:40:43.461Z,20.70
2022-08-01T10:43:14.950Z,20.70
2022-08-01T10:45:56.393Z,20.70
2022-08-01T10:48:34.240Z,20.80
2022-08-01T10:51:18.182Z,20.80
2022-08-01T10:53:56.927Z,20.80
2022-08-01T10:56:44.356Z,20.90
2022-08-01T10:59:50.135Z,20.80
2022-08-01T11:02:32.290Z,20.80
2022-08-01T11:05:08.211Z,20.80
2022-08-01T11:07:51.317Z,20.90
2022-08-01T11:10:30.684Z,21.00
2022-08-01T11:13:03.298Z,21.00
2022-08-01T11:15:35.711Z,21.00
2022-08-01T11:18:37.834Z,21.00
2022-08-01T11:21:56.932Z,21.00
2022-08-01T11:24:02.131Z,21.00
2022-08-01T11:26:35.090Z,21.00
2022-08-01T11:29:21.670Z,21.00
2022-08-01T11:31:55.241Z,20.80
2022-08-01T11:35:09.034Z,20.70
2022-08-01T11:37:40.687Z,20.60
2022-08-01T11:40:24.933Z,20.60
2022-08-01T11:43:22.842Z,20.60
2022-08-01T11:45:57.243Z,20.60
2022-08-01T11:48:31.351Z,20.70
2022-08-01T11:51:04.539Z,20.70
2022-08-01T11:53:39.509Z,20.80
2022-08-01T11:56:13.694Z,20.90
2022-08-01T11:58:49.050Z,20.80
2022-08-01T12:01:24.633Z,20.60
2022-08-01T12:04:01.673Z,20.60
2022-08-01T12:06:36.698Z,20.70
2022-08-01T12:12:06.772Z,20.60
2022-08-01T12:14:39.844Z,20.60
2022-08-01T12:17:12.077Z,20.60
2022-08-01T12:19:44.684Z,20.60
2022-08-01T12:22:19.009Z,20.60
2022-08-01T12:24:51.569Z,20.60
2022-08-01T12:27:30.508Z,20.60
2022-08-01T12:30:04.025Z,20.60
2022-08-01T12:32:37.826Z,20.50
2022-08-01T12:35:15.295Z,20.60
2022-08-01T12:37:53.581Z,20.50
2022-08-01T12:40:26.469Z,20.40
2022-08-01T12:42:58.751Z,20.40
2022-08-01T12:45:32.923Z,20.30
2022-08-01T12:48:05.742Z,20.20
2022-08-01T12:50:38.066Z,20.10
2022-08-01T12:53:16.950Z,20.00
2022-08-01T12:55:58.778Z,20.00
2022-08-01T12:58:36.627Z,19.90
2022-08-01T13:01:10.655Z,20.00
2022-08-01T13:03:44.698Z,19.90
2022-08-01T13:06:17.765Z,19.80
2022-08-01T13:08:51.459Z,19.80
2022-08-01T13:11:23.546Z,19.80
2022-08-01T13:13:57.452Z,19.80
2022-08-01T13:16:55.184Z,19.80
2022-08-01T13:19:22.419Z,19.90
2022-08-01T13:22:01.254Z,19.90
2022-08-01T13:24:38.192Z,20.00
2022-08-01T13:27:10.322Z,20.00
2022-08-01T13:29:43.857Z,20.00
2022-08-01T13:32:29.398Z,19.90
2022-08-01T13:35:09.330Z,20.00
2022-08-01T13:37:40.708Z,20.00
2022-08-01T13:40:16.184Z,20.10
2022-08-01T13:42:48.396Z,20.10
2022-08-01T13:45:22.418Z,20.00
2022-08-01T13:48:12.043Z,20.00
2022-08-01T13:50:47.891Z,20.00
2022-08-01T13:53:26.709Z,20.00
2022-08-01T13:56:03.771Z,20.10
2022-08-01T13:58:35.877Z,20.10
2022-08-01T14:01:12.909Z,20.20
2022-08-01T14:03:44.492Z,20.00
2022-08-01T14:06:16.619Z,20.00
2022-08-01T14:08:49.111Z,20.00
2022-08-01T14:11:25.589Z,19.90
2022-08-01T14:14:03.239Z,20.00
2022-08-01T14:16:36.211Z,20.00
2022-08-01T14:19:07.782Z,20.00
2022-08-01T14:21:40.188Z,20.00
2022-08-01T14:24:13.845Z,19.90
2022-08-01T14:26:50.645Z,19.90
2022-08-01T14:29:21.765Z,19.90
2022-08-01T14:31:54.017Z,20.00
2022-08-01T14:34:40.839Z,19.80
2022-08-01T14:37:11.553Z,19.70
2022-08-01T14:40:00.821Z,19.80
2022-08-01T14:42:34.982Z,19.70
2022-08-01T14:45:10.569Z,19.80
2022-08-01T14:47:42.752Z,19.80
2022-08-01T14:50:17.077Z,19.90
2022-08-01T14:52:48.556Z,19.80
2022-08-01T14:55:19.796Z,19.70
2022-08-01T14:58:10.906Z,19.80
2022-08-01T15:00:43.096Z,20.10
2022-08-01T15:03:15.568Z,20.60
2022-08-01T15:05:57.661Z,20.60
2022-08-01T15:20:43.948Z,21.30
2022-08-01T15:23:20.078Z,21.50
2022-08-01T15:31:25.771Z,20.80
2022-08-01T15:33:59.908Z,20.80
2022-08-01T15:36:43.908Z,20.90
2022-08-01T15:39:15.492Z,21.20
2022-08-01T15:44:32.353Z,21.20
2022-08-01T15:47:14.105Z,21.20
2022-08-01T15:49:52.851Z,21.10
2022-08-01T15:52:39.061Z,21.30
2022-08-01T16:02:13.410Z,21.60
2022-08-01T16:04:48.844Z,21.70
2022-08-01T16:07:20.142Z,21.80
2022-08-01T16:09:54.048Z,21.90
2022-08-01T16:12:25.469Z,22.10
2022-08-01T16:14:56.657Z,22.40
2022-08-01T16:17:28.134Z,22.60
2022-08-01T16:19:59.914Z,22.50
2022-08-01T16:22:32.243Z,22.70
2022-08-01T16:25:05.560Z,22.80
2022-08-01T16:27:39.155Z,22.90
2022-08-01T16:30:12.006Z,22.70
2022-08-01T16:32:47.134Z,22.50
2022-08-01T16:35:36.214Z,22.30
2022-08-01T16:38:10.263Z,22.30
2022-08-01T16:40:47.555Z,22.30
2022-08-01T16:43:19.928Z,22.20
2022-08-01T16:45:52.683Z,22.00
2022-08-01T16:48:24.409Z,22.00
2022-08-01T16:50:56.542Z,22.00
2022-08-01T16:53:27.664Z,22.20
2022-08-01T16:56:03.024Z,22.20
2022-08-01T16:58:39.691Z,22.30
2022-08-01T17:03:52.389Z,22.40
2022-08-01T17:06:32.235Z,22.40
2022-08-01T17:09:07.201Z,22.50
2022-08-01T17:11:45.057Z,22.60
2022-08-01T17:14:17.427Z,22.60
2022-08-01T17:17:01.794Z,22.50
2022-08-01T17:19:53.666Z,22.60
2022-08-01T17:22:29.534Z,22.60
2022-08-01T17:25:15.976Z,22.60
2022-08-01T17:27:54.117Z,22.70
2022-08-01T17:30:25.579Z,22.70
2022-08-01T17:32:57.095Z,22.80
2022-08-01T17:35:28.310Z,22.70
2022-08-01T17:38:03.047Z,22.70
2022-08-01T17:40:40.504Z,22.70
2022-08-01T17:43:13.887Z,22.70
2022-08-01T17:45:51.845Z,22.80
2022-08-01T17:48:29.462Z,22.80
2022-08-01T17:53:56.937Z,23.00
2022-08-01T17:56:33.661Z,23.20
2022-08-01T17:59:20.215Z,23.50
2022-08-01T18:01:53.142Z,23.40
2022-08-01T18:07:15.990Z,23.30
2022-08-01T18:09:48.727Z,23.50
2022-08-01T18:12:22.203Z,23.40
2022-08-01T18:14:56.327Z,23.40
2022-08-01T18:17:28.176Z,23.50
2022-08-01T18:20:00.374Z,23.60
2022-08-01T18:22:34.081Z,23.60
2022-08-01T18:25:08.881Z,23.60
2022-08-01T18:28:22.305Z,23.80
2022-08-01T18:30:35.916Z,23.60
2022-08-01T18:33:07.616Z,23.50
2022-08-01T18:35:53.488Z,23.40
2022-08-01T18:38:25.095Z,23.60
2022-08-01T18:40:56.698Z,23.70
2022-08-01T18:43:29.644Z,24.00
2022-08-01T18:46:07.288Z,24.00
2022-08-01T18:48:39.085Z,24.00
2022-08-01T18:51:11.576Z,24.10
2022-08-01T18:53:44.800Z,24.10
2022-08-01T18:56:20.587Z,24.20
2022-08-01T18:58:52.314Z,24.20
2022-08-01T19:01:26.198Z,24.10
2022-08-01T19:03:57.584Z,24.20
2022-08-01T19:06:29.689Z,24.20
2022-08-01T19:09:02.698Z,24.20
2022-08-01T19:11:36.261Z,24.00
2022-08-01T19:14:07.960Z,24.00
2022-08-01T19:16:41.257Z,24.00
2022-08-01T19:19:12.725Z,24.00
2022-08-01T19:21:46.814Z,23.70
2022-08-01T19:24:23.367Z,23.80
2022-08-01T19:26:57.872Z,23.60
2022-08-01T19:29:35.895Z,23.80
2022-08-01T19:32:11.579Z,23.80
2022-08-01T19:42:52.280Z,24.00
2022-08-01T19:45:23.867Z,24.20
2022-08-01T19:47:58.344Z,24.40
2022-08-01T19:50:30.456Z,24.50
2022-08-01T19:53:05.296Z,23.90
2022-08-01T19:55:41.370Z,24.30
2022-08-01T19:58:27.263Z,24.60
2022-08-01T20:00:59.350Z,24.80
2022-08-01T20:03:44.055Z,25.10
2022-08-01T20:06:16.701Z,25.00
2022-08-01T20:08:49.884Z,25.00
2022-08-01T20:11:21.962Z,25.10
2022-08-01T20:13:54.490Z,24.80
2022-08-01T20:16:29.376Z,24.80
2022-08-01T20:19:10.543Z,25.00
2022-08-01T20:21:43.276Z,25.20
2022-08-01T20:24:40.959Z,25.10
2022-08-01T20:30:28.913Z,25.60
2022-08-01T20:33:02.105Z,25.40
2022-08-01T20:35:53.688Z,25.50
2022-08-01T20:38:27.444Z,25.90
2022-08-01T20:41:01.058Z,26.00
2022-08-01T20:43:33.187Z,25.70
2022-08-01T20:46:06.338Z,25.80
2022-08-01T20:48:40.289Z,26.00
2022-08-01T20:51:20.486Z,25.90
2022-08-01T20:53:53.629Z,25.70
2022-08-01T20:56:42.547Z,25.80
2022-08-01T20:59:54.452Z,25.90
2022-08-01T21:02:20.509Z,25.70
2022-08-01T21:08:07.038Z,25.40
2022-08-01T21:10:43.603Z,25.70
2022-08-01T21:13:21.000Z,25.90
2022-08-01T21:16:11.137Z,25.70
2022-08-01T21:28:30.962Z,26.80
2022-08-01T21:34:28.470Z,26.40
2022-08-01T21:43:12.153Z,27.60
2022-08-01T21:58:22.217Z,27.70
2022-08-01T22:01:04.679Z,27.60
2022-08-01T22:03:45.738Z,27.90
2022-08-01T22:06:19.280Z,28.00
2022-08-01T22:09:04.914Z,27.90
2022-08-01T22:18:05.861Z,28.80
2022-08-01T22:20:44.826Z,28.30
2022-08-01T22:23:18.094Z,28.00
2022-08-01T22:25:50.666Z,27.30
2022-08-01T22:28:23.268Z,27.00
2022-08-01T22:31:10.707Z,26.70
2022-08-01T22:33:51.983Z,26.50
2022-08-01T22:36:34.125Z,25.90
2022-08-01T22:42:14.237Z,25.60
2022-08-01T22:44:56.517Z,25.60
2022-08-01T22:50:54.908Z,25.70
2022-08-01T22:53:34.174Z,26.10
2022-08-01T22:56:09.266Z,26.40
2022-08-01T22:58:49.974Z,27.00
2022-08-01T23:01:29.078Z,27.20
2022-08-01T23:04:12.405Z,27.80
2022-08-01T23:06:50.507Z,28.40
2022-08-01T23:09:53.360Z,28.30
2022-08-01T23:12:22.683Z,28.70
2022-08-01T23:14:56.336Z,29.10
2022-08-01T23:17:29.568Z,29.30
2022-08-01T23:20:02.655Z,29.10
2022-08-01T23:22:36.297Z,29.40
2022-08-01T23:25:16.661Z,29.20
2022-08-01T23:28:04.303Z,29.10
2022-08-01T23:30:41.792Z,29.20
2022-08-01T23:33:15.111Z,28.90
2022-08-01T23:35:53.216Z,29.20
2022-08-01T23:38:24.460Z,29.60
2022-08-01T23:40:57.617Z,29.80
2022-08-01T23:43:29.146Z,29.80
2022-08-01T23:46:28.965Z,29.80
2022-08-01T23:49:00.387Z,29.20
2022-08-01T23:51:32.029Z,29.00
2022-08-01T23:54:03.338Z,29.10
2022-08-01T23:56:39.802Z,29.30
2022-08-01T23:59:13.196Z,29.30
